Airfield :
LOGIN :

Register | Disclaimer

   EN    FR    IT 

 










Legend :    VFR   Marginal VFR   IFR   Intensive IFR   Very Intensive IFR
Visi :
Ceiling :
>= 8 km
>= 3000ft
5 to 8 km
1000 to 3000 ft
1500m to 5 km
500 to 1000 ft
800 to 1500m
200 to 500 ft
< 800m
< 200 ft
Symbols :   Thunderstorms  Fog  Heavy snow  Heavy precipitations  Wind > 20 kt
SIGMETs :     Misc.  Thunderstorms  Icing  Turbulence  Mountain Waves  Volcanic Ashes






- Airport Elevation : 289 ft
- IATA code : ZAD


LDZD - Zadar

CURRENT METAR :
  • 040000Z VRB02KT CAVOK 22/19 Q1015

EXPIRED METARs :
  • 031530Z 28014KT 260V320 CAVOK 32/17 Q1015 NOSIG
  • 032330Z 29002KT CAVOK 22/19 Q1015
  • 032300Z 32002KT CAVOK 22/19 Q1015 NOSIG
  • 032230Z 28003KT CAVOK 22/19 Q1015 BECMG 06007KT
  • 032200Z 00000KT CAVOK 23/20 Q1015 BECMG 06007KT
  • 032130Z 00000KT CAVOK 23/20 Q1015 BECMG 06007KT

TAF TAF LDZD
Valid from the 04 at 00:00 until the 05 at 00:00 UTC


032325Z 0400/0500 08005KT CAVOK TX36/0412Z TN19/0403Z
BECMG 0410/0412 30012KT
BECMG 0417/0419 VRB02KT



MET'MAP, your aeronautical weather chart ! - Copyright ORBIFLY December 2007 - Disclaimer

ORBIFLY MET'MAP TEAM :

Programming & Development : Alexandra Zaïnal
Original concept : Baudouin d'Aumeries
Technical & hardware support : Manuel Goepfert
Assistance : Marc-Olivier Méhu




SOURCES & CREDITS :

   NOAA